Time;durP1;ratioP1;P1;durP2;ratioP2;P2;SDS_P1;SDS_P2;PMS_P1;PMS_P2;Temp;Humidity;BMP_temperature;BMP_pressure;BME280_temperature;BME280_humidity;BME280_pressure;Samples;Min_cycle;Max_cycle;Signal;HPM_P1;HPM_P2
2022/08/03 00:01:24;;;;;;;5.22;3.72;;;;;;;21.70;52.46;100384.59;5001969;28;20052;-71
2022/08/03 00:03:51;;;;;;;5.68;3.45;;;;;;;21.81;52.62;100405.97;5012236;28;20053;-72
2022/08/03 00:06:18;;;;;;;5.90;3.53;;;;;;;21.82;52.58;100405.00;5012580;28;20073;-73
2022/08/03 00:08:44;;;;;;;5.07;4.00;;;;;;;21.88;51.70;100401.69;5015604;28;20545;-73
2022/08/03 00:11:11;;;;;;;5.38;3.50;;;;;;;21.93;51.57;100403.97;5008677;28;20054;-71
2022/08/03 00:13:37;;;;;;;3.92;3.53;;;;;;;21.94;51.70;100402.97;5004517;28;20128;-72
2022/08/03 00:16:04;;;;;;;4.72;3.55;;;;;;;21.91;51.93;100396.03;5011454;28;20081;-73
2022/08/03 00:18:31;;;;;;;4.43;3.22;;;;;;;21.86;51.72;100401.03;5018051;28;20065;-73
2022/08/03 00:20:57;;;;;;;4.32;3.33;;;;;;;21.80;51.53;100385.41;5012729;28;20440;-71
2022/08/03 00:23:24;;;;;;;6.00;3.55;;;;;;;21.85;51.59;100398.47;5005109;28;20076;-73
2022/08/03 00:25:53;;;;;;;4.30;3.83;;;;;;;21.82;51.77;100399.59;5009579;28;20503;-73
2022/08/03 00:28:20;;;;;;;6.05;3.72;;;;;;;21.83;51.86;100387.81;5012977;28;20084;-73
2022/08/03 00:30:47;;;;;;;6.22;3.42;;;;;;;21.70;51.98;100377.34;5006407;28;20045;-73
2022/08/03 00:33:14;;;;;;;4.70;3.60;;;;;;;21.77;51.62;100395.63;5000803;28;20050;-73
2022/08/03 00:35:40;;;;;;;4.95;3.33;;;;;;;21.66;51.52;100375.06;5024411;28;20073;-71
2022/08/03 00:38:17;;;;;;;5.20;3.05;;;;;;;21.62;51.33;100374.50;5015534;28;20129;-73
2022/08/03 00:40:43;;;;;;;3.83;3.42;;;;;;;21.53;51.23;100364.59;5011863;28;20136;-71
2022/08/03 00:43:10;;;;;;;3.38;2.80;;;;;;;21.58;51.46;100378.47;5009957;28;20097;-71
2022/08/03 00:45:39;;;;;;;6.90;3.75;;;;;;;21.59;51.86;100390.09;5024364;28;20093;-73
2022/08/03 00:48:08;;;;;;;4.45;3.72;;;;;;;21.47;52.04;100392.09;5020813;28;20061;-72
2022/08/03 00:50:55;;;;;;;7.15;3.45;;;;;;;21.31;52.46;100370.25;5007559;28;20442;-73
2022/08/03 00:53:21;;;;;;;4.03;3.15;;;;;;;21.42;52.46;100390.81;5010220;28;20045;-71
2022/08/03 00:55:48;;;;;;;4.25;3.25;;;;;;;21.50;52.47;100401.75;5017866;28;20074;-72
2022/08/03 00:58:14;;;;;;;4.50;3.47;;;;;;;21.45;52.42;100399.47;5016956;28;20065;-72
2022/08/03 01:00:41;;;;;;;5.90;3.67;;;;;;;21.33;52.81;100389.81;5003836;28;20473;-74
2022/08/03 01:03:09;;;;;;;6.15;3.53;;;;;;;21.29;53.19;100399.16;5020375;28;20100;-71
2022/08/03 01:05:52;;;;;;;5.97;3.22;;;;;;;21.29;53.65;100393.78;5008786;28;20518;-70
2022/08/03 01:08:36;;;;;;;5.15;3.30;;;;;;;21.22;54.30;100396.22;5007974;28;20074;-72
2022/08/03 01:11:22;;;;;;;3.58;3.08;;;;;;;21.07;54.31;100397.56;5012494;28;20046;-71
2022/08/03 01:13:59;;;;;;;5.70;3.63;;;;;;;20.82;54.99;100374.69;5009418;28;20057;-72
2022/08/03 01:16:54;;;;;;;4.30;3.30;;;;;;;20.87;55.94;100398.50;5009772;28;20052;-73
2022/08/03 01:19:26;;;;;;;6.20;3.28;;;;;;;20.77;56.39;100386.88;5001020;28;20051;-71
2022/08/03 01:22:16;;;;;;;4.57;3.17;;;;;;;20.71;56.13;100384.72;5013844;28;20100;-73
2022/08/03 01:24:57;;;;;;;5.90;3.22;;;;;;;20.65;56.58;100386.09;5000330;28;20073;-71
2022/08/03 01:27:53;;;;;;;3.95;3.10;;;;;;;20.57;56.92;100383.25;5018659;28;20065;-73
2022/08/03 01:30:23;;;;;;;5.15;3.22;;;;;;;20.51;57.46;100384.66;5015325;28;20045;-73
2022/08/03 01:33:14;;;;;;;5.78;3.40;;;;;;;20.47;57.76;100391.28;5007202;28;20054;-73
2022/08/03 01:35:46;;;;;;;4.78;3.10;;;;;;;20.42;57.80;100396.22;5037882;28;20049;-72
2022/08/03 01:38:17;;;;;;;5.43;3.80;;;;;;;20.34;57.91;100385.25;5007425;28;20461;-73
2022/08/03 01:40:54;;;;;;;3.90;3.55;;;;;;;20.36;57.80;100386.00;5018439;28;20580;-74
2022/08/03 01:43:27;;;;;;;3.25;3.03;;;;;;;20.30;58.08;100381.16;5011270;28;20542;-73
2022/08/03 01:46:14;;;;;;;4.05;3.40;;;;;;;20.24;58.42;100387.06;5017056;28;20486;-73
2022/08/03 01:48:43;;;;;;;5.18;3.53;;;;;;;20.18;58.78;100380.34;4997884;28;20548;-73
2022/08/03 01:51:11;;;;;;;4.97;3.65;;;;;;;20.12;58.97;100377.38;5019313;28;20077;-73
2022/08/03 01:53:42;;;;;;;3.85;3.20;;;;;;;20.01;58.88;100364.00;5013816;28;20056;-73
2022/08/03 01:56:10;;;;;;;5.72;3.25;;;;;;;19.91;59.04;100353.19;5018155;28;20120;-74
2022/08/03 01:58:39;;;;;;;4.15;3.60;;;;;;;20.00;59.32;100375.72;5031638;28;20050;-72
2022/08/03 02:01:09;;;;;;;4.28;2.95;;;;;;;19.93;59.26;100376.28;5029286;28;20076;-71
2022/08/03 02:03:38;;;;;;;4.53;3.33;;;;;;;19.94;59.51;100382.50;5011788;28;20061;-71
2022/08/03 02:06:26;;;;;;;3.72;3.33;;;;;;;19.83;59.39;100364.59;5027993;28;20042;-73
2022/08/03 02:09:14;;;;;;;4.18;3.30;;;;;;;19.81;59.75;100371.09;5004416;28;20453;-71
2022/08/03 02:11:43;;;;;;;3.97;3.40;;;;;;;19.75;59.67;100372.47;5024595;28;20085;-70
2022/08/03 02:14:10;;;;;;;3.50;3.20;;;;;;;19.78;59.79;100382.97;5023011;28;20049;-71
2022/08/03 02:16:37;;;;;;;4.38;3.40;;;;;;;19.72;59.76;100370.03;5014864;28;21170;-72
2022/08/03 02:19:06;;;;;;;4.10;3.05;;;;;;;19.86;59.64;100384.97;5025987;28;21066;-72
2022/08/03 02:21:36;;;;;;;5.03;3.35;;;;;;;19.81;59.41;100380.03;5020051;28;20501;-71
2022/08/03 02:24:22;;;;;;;3.85;3.38;;;;;;;19.80;59.51;100381.00;5013421;28;20433;-71
2022/08/03 02:26:50;;;;;;;7.32;3.60;;;;;;;19.74;59.90;100377.97;5019213;28;20077;-71
2022/08/03 02:29:22;;;;;;;4.07;3.33;;;;;;;19.53;60.15;100353.78;5013753;28;20050;-70
2022/08/03 02:32:11;;;;;;;4.95;3.35;;;;;;;19.64;60.34;100372.53;5022330;28;20041;-72
2022/08/03 02:34:40;;;;;;;5.82;3.85;;;;;;;19.68;60.60;100375.78;5023808;28;20077;-72
2022/08/03 02:37:10;;;;;;;4.97;3.42;;;;;;;19.72;60.62;100372.72;5019320;28;20513;-71
2022/08/03 02:39:39;;;;;;;3.85;3.40;;;;;;;19.54;60.56;100342.91;5025081;28;20521;-72
2022/08/03 02:42:08;;;;;;;3.43;3.13;;;;;;;19.63;60.48;100373.53;5015415;28;20084;-72
2022/08/03 02:44:40;;;;;;;5.55;3.47;;;;;;;19.55;61.09;100359.88;5031050;28;20515;-73
2022/08/03 02:47:09;;;;;;;4.17;2.97;;;;;;;19.51;61.25;100375.41;5026871;28;20041;-72
2022/08/03 02:49:37;;;;;;;4.20;3.33;;;;;;;19.42;61.55;100359.19;5017586;28;20889;-72
2022/08/03 02:52:20;;;;;;;5.80;3.50;;;;;;;19.30;61.95;100354.84;5031169;28;20056;-71
2022/08/03 02:54:49;;;;;;;3.50;3.20;;;;;;;19.36;61.83;100367.78;5018056;28;20152;-72
2022/08/03 02:57:18;;;;;;;4.15;3.25;;;;;;;19.38;62.05;100373.84;5032966;28;20080;-71
2022/08/03 02:59:46;;;;;;;3.90;3.50;;;;;;;19.46;62.04;100371.38;5014922;28;20196;-72
2022/08/03 03:02:15;;;;;;;6.53;3.72;;;;;;;19.41;61.55;100357.47;5013885;28;20057;-71
2022/08/03 03:04:43;;;;;;;5.47;3.50;;;;;;;19.48;61.51;100372.09;5023219;28;20056;-71
2022/08/03 03:07:32;;;;;;;3.70;3.30;;;;;;;19.38;61.80;100358.56;5029132;28;20124;-72
2022/08/03 03:10:19;;;;;;;5.57;3.33;;;;;;;19.48;61.41;100372.97;5022791;28;20096;-70
2022/08/03 03:12:47;;;;;;;4.07;3.67;;;;;;;19.48;61.50;100369.41;5021431;28;20603;-71
2022/08/03 03:15:13;;;;;;;3.92;3.40;;;;;;;19.40;61.88;100371.88;5030087;28;20171;-72
2022/08/03 03:17:42;;;;;;;3.95;3.35;;;;;;;19.32;62.20;100372.53;5026974;28;20049;-71
2022/08/03 03:20:09;;;;;;;3.60;3.30;;;;;;;19.32;62.25;100369.00;5024593;28;20057;-72
2022/08/03 03:22:37;;;;;;;4.10;3.70;;;;;;;19.30;62.22;100371.81;5023437;28;20178;-71
2022/08/03 03:25:06;;;;;;;4.20;3.80;;;;;;;19.19;62.61;100370.03;5023096;28;20049;-72
2022/08/03 03:27:33;;;;;;;5.22;3.80;;;;;;;19.12;62.89;100358.09;5031656;28;20065;-72
2022/08/03 03:30:01;;;;;;;6.47;3.40;;;;;;;19.05;63.17;100370.28;5028166;28;20053;-71
2022/08/03 03:32:31;;;;;;;7.55;3.65;;;;;;;19.03;63.38;100372.28;5028843;28;20049;-72
2022/08/03 03:34:59;;;;;;;6.03;4.03;;;;;;;18.90;63.71;100371.56;5002396;28;20466;-71
2022/08/03 03:37:25;;;;;;;4.22;3.83;;;;;;;18.94;63.98;100378.38;5003434;28;20081;-72
2022/08/03 03:39:53;;;;;;;6.05;4.20;;;;;;;18.95;64.34;100392.66;4995217;28;20519;-73
2022/08/03 03:42:20;;;;;;;7.68;4.10;;;;;;;18.90;64.22;100382.28;5006056;28;20546;-71
2022/08/03 03:44:47;;;;;;;6.22;3.85;;;;;;;18.89;64.06;100381.44;5006890;28;20046;-70
2022/08/03 03:47:14;;;;;;;4.72;4.10;;;;;;;18.93;64.37;100382.03;4983639;28;20132;-72
2022/08/03 03:49:42;;;;;;;7.22;3.90;;;;;;;18.77;64.31;100360.13;4996796;28;20076;-71
2022/08/03 03:52:09;;;;;;;5.63;3.58;;;;;;;18.85;64.55;100382.69;5001103;28;20981;-73
2022/08/03 03:54:44;;;;;;;5.28;3.90;;;;;;;18.81;64.64;100380.38;5011983;28;20567;-73
2022/08/03 03:57:10;;;;;;;5.40;3.65;;;;;;;18.78;65.01;100376.09;4997128;28;20169;-71
2022/08/03 03:59:40;;;;;;;7.60;4.00;;;;;;;18.76;64.95;100378.06;5013357;28;20042;-73
2022/08/03 04:02:08;;;;;;;6.55;3.67;;;;;;;18.75;65.03;100373.66;5013401;28;20053;-72
2022/08/03 04:13:08;;;;;;;7.05;3.70;;;;;;;18.73;65.45;100377.47;5003153;28;20140;-72
2022/08/03 04:15:38;;;;;;;5.82;4.13;;;;;;;18.73;65.50;100382.84;5003796;28;20447;-72
2022/08/03 04:18:08;;;;;;;6.60;4.50;;;;;;;18.73;65.58;100385.53;5005098;28;20124;-71
2022/08/03 04:20:37;;;;;;;7.00;4.20;;;;;;;18.62;65.35;100364.06;5007414;28;20056;-72
2022/08/03 04:23:06;;;;;;;6.15;4.13;;;;;;;18.74;65.41;100379.16;4997512;28;20058;-71
2022/08/03 04:25:42;;;;;;;4.97;3.72;;;;;;;18.75;65.15;100378.16;5004866;28;20656;-73
2022/08/03 04:28:10;;;;;;;8.55;4.35;;;;;;;18.63;65.27;100355.03;4998734;28;20038;-73
2022/08/03 04:30:58;;;;;;;4.85;4.25;;;;;;;18.77;65.19;100377.06;4999797;28;20061;-73
2022/08/03 04:33:28;;;;;;;8.50;3.92;;;;;;;18.76;65.01;100388.78;5009825;28;20481;-73
2022/08/03 04:35:58;;;;;;;5.32;4.50;;;;;;;18.76;65.44;100385.25;5023615;28;20053;-74
2022/08/03 04:38:38;;;;;;;6.88;4.57;;;;;;;18.74;65.26;100373.78;5023810;28;20112;-73
2022/08/03 04:41:07;;;;;;;5.60;4.18;;;;;;;18.66;65.36;100363.69;5025137;28;20049;-73
2022/08/03 04:43:38;;;;;;;5.50;3.65;;;;;;;18.81;65.18;100391.94;5013521;28;20450;-73
2022/08/03 04:46:07;;;;;;;8.15;4.25;;;;;;;18.81;65.41;100394.63;5032386;28;20505;-71
2022/08/03 04:48:34;;;;;;;4.43;3.85;;;;;;;18.82;65.33;100382.94;5020559;28;20049;-73
2022/08/03 04:51:03;;;;;;;4.20;3.80;;;;;;;18.83;64.73;100378.41;5016492;28;20486;-71
2022/08/03 04:53:30;;;;;;;5.22;4.00;;;;;;;18.88;64.92;100386.97;5020869;28;20124;-72
2022/08/03 04:56:03;;;;;;;5.07;3.95;;;;;;;18.88;64.83;100382.44;5026227;28;20037;-71
2022/08/03 04:58:30;;;;;;;5.25;3.90;;;;;;;18.87;64.88;100377.19;5028218;28;20092;-72
2022/08/03 05:00:56;;;;;;;5.25;3.95;;;;;;;19.08;64.46;100394.19;5021961;28;20453;-72
2022/08/03 05:03:23;;;;;;;5.60;4.03;;;;;;;19.16;63.94;100402.50;5027268;28;20249;-71
2022/08/03 05:05:54;;;;;;;7.70;4.18;;;;;;;19.21;63.94;100400.25;5024738;28;20397;-72
2022/08/03 05:08:38;;;;;;;4.47;3.45;;;;;;;19.26;63.72;100403.44;5021354;28;20371;-72
2022/08/03 05:11:14;;;;;;;5.38;3.70;;;;;;;19.32;63.96;100402.06;5037000;28;20136;-72
2022/08/03 05:13:41;;;;;;;5.10;3.70;;;;;;;19.32;63.17;100385.09;5023481;28;20057;-72
2022/08/03 05:16:07;;;;;;;7.90;4.00;;;;;;;19.39;62.84;100375.53;5028890;28;20164;-73
2022/08/03 05:18:34;;;;;;;4.00;3.53;;;;;;;19.61;62.82;100407.72;5015552;28;20552;-71
2022/08/03 05:21:01;;;;;;;4.22;3.83;;;;;;;19.65;63.09;100398.44;5028961;28;20052;-73
2022/08/03 05:23:28;;;;;;;7.55;3.95;;;;;;;19.60;63.16;100382.69;5016575;28;20145;-74
2022/08/03 05:25:54;;;;;;;5.65;4.28;;;;;;;19.80;62.65;100409.72;5035863;28;20088;-73
2022/08/03 05:28:21;;;;;;;4.55;3.55;;;;;;;19.87;61.84;100402.81;5030104;28;20081;-73
2022/08/03 05:30:48;;;;;;;5.05;3.67;;;;;;;19.94;61.67;100402.16;5030629;28;20076;-73
2022/08/03 05:33:15;;;;;;;7.70;3.90;;;;;;;20.01;61.56;100410.53;5021410;28;20050;-72
2022/08/03 05:35:42;;;;;;;4.95;3.55;;;;;;;20.09;61.77;100409.88;5016390;28;20501;-73
2022/08/03 05:38:28;;;;;;;4.75;3.92;;;;;;;20.12;61.19;100405.09;5018422;28;20064;-71
2022/08/03 05:41:02;;;;;;;7.13;3.40;;;;;;;20.20;60.96;100401.75;5018700;28;20053;-73
2022/08/03 05:43:53;;;;;;;3.70;3.40;;;;;;;20.35;59.75;100413.00;5034223;28;20413;-72
2022/08/03 05:46:21;;;;;;;4.05;3.30;;;;;;;20.43;59.58;100411.38;5015997;28;20053;-72
2022/08/03 05:48:47;;;;;;;5.07;3.40;;;;;;;20.47;59.51;100414.63;5022120;28;20041;-72
2022/08/03 05:51:14;;;;;;;5.40;3.60;;;;;;;20.53;59.30;100419.50;5029268;28;20186;-72
2022/08/03 05:53:42;;;;;;;5.22;4.00;;;;;;;20.57;59.20;100416.41;5019921;28;20053;-73
2022/08/03 05:56:09;;;;;;;4.40;3.70;;;;;;;20.60;59.03;100418.81;5011753;28;20057;-74
2022/08/03 05:58:46;;;;;;;4.40;3.63;;;;;;;20.72;58.56;100421.41;5024691;28;20131;-73
2022/08/03 06:01:14;;;;;;;4.45;3.60;;;;;;;20.82;58.19;100422.28;5018754;28;20787;-73
2022/08/03 06:03:41;;;;;;;4.35;3.88;;;;;;;20.90;57.96;100426.00;5016721;28;20084;-74
2022/08/03 06:06:08;;;;;;;3.97;3.60;;;;;;;20.88;57.68;100400.22;5010160;28;20460;-74
2022/08/03 06:08:35;;;;;;;4.22;3.50;;;;;;;21.02;56.93;100414.13;5005932;28;24303;-71
2022/08/03 06:11:02;;;;;;;5.95;3.83;;;;;;;21.15;56.56;100423.78;5014863;28;20103;-72
2022/08/03 06:13:29;;;;;;;6.60;3.72;;;;;;;21.25;55.86;100428.22;5010885;28;20049;-71
2022/08/03 06:15:55;;;;;;;4.80;3.58;;;;;;;21.35;56.15;100422.88;5015151;28;20821;-72
2022/08/03 06:18:23;;;;;;;5.22;4.07;;;;;;;21.45;55.91;100417.47;5011447;28;20050;-72
2022/08/03 06:20:50;;;;;;;9.00;3.78;;;;;;;21.65;55.50;100424.56;5015240;28;20532;-70
2022/08/03 06:23:18;;;;;;;6.95;3.63;;;;;;;21.75;54.67;100395.75;5008999;28;20046;-73
2022/08/03 06:25:46;;;;;;;6.88;3.72;;;;;;;22.11;54.05;100425.69;5019071;28;20052;-72
2022/08/03 06:28:13;;;;;;;3.72;3.25;;;;;;;22.36;53.18;100406.16;5006822;28;20465;-71
2022/08/03 06:31:00;;;;;;;5.28;3.65;;;;;;;22.79;51.99;100418.25;5017375;28;20045;-71
2022/08/03 06:33:27;;;;;;;4.55;3.50;;;;;;;23.07;50.75;100415.38;5003520;28;20050;-71
2022/08/03 06:36:14;;;;;;;3.95;3.05;;;;;;;23.61;49.17;100410.06;4996288;28;20564;-71
2022/08/03 06:38:41;;;;;;;3.92;3.17;;;;;;;23.98;48.46;100407.97;4994172;28;20500;-73
2022/08/03 06:41:07;;;;;;;5.32;3.35;;;;;;;24.42;47.52;100407.94;4991176;28;20443;-72
2022/08/03 06:43:36;;;;;;;5.55;3.78;;;;;;;24.86;47.95;100413.25;4992774;28;20084;-72
2022/08/03 06:46:22;;;;;;;7.68;3.90;;;;;;;25.00;46.82;100405.38;4984707;28;20041;-71
2022/08/03 06:48:49;;;;;;;5.43;3.50;;;;;;;25.30;45.51;100401.22;5007866;28;20464;-71
2022/08/03 06:51:16;;;;;;;10.45;3.85;;;;;;;25.63;45.45;100404.84;4993567;28;20113;-72
2022/08/03 06:53:42;;;;;;;7.18;4.18;;;;;;;25.67;44.91;100408.91;5004550;28;20073;-72
2022/08/03 06:56:09;;;;;;;10.00;4.03;;;;;;;25.26;45.98;100416.09;4999841;28;20054;-74
2022/08/03 06:58:36;;;;;;;9.65;4.32;;;;;;;25.04;46.96;100419.41;4999652;28;20069;-72
2022/08/03 07:01:03;;;;;;;10.73;4.20;;;;;;;24.98;47.14;100406.56;4991731;28;20184;-72
2022/08/03 07:03:30;;;;;;;11.23;4.30;;;;;;;25.06;46.57;100423.66;4985665;28;20055;-74
2022/08/03 07:05:58;;;;;;;6.28;3.97;;;;;;;25.06;46.83;100420.09;4994860;28;20050;-74
2022/08/03 07:08:25;;;;;;;10.15;3.97;;;;;;;25.22;45.92;100427.44;5005975;28;20080;-73
2022/08/03 07:10:59;;;;;;;7.45;3.97;;;;;;;25.31;46.59;100421.88;5005013;28;20068;-73
2022/08/03 07:13:26;;;;;;;6.72;3.63;;;;;;;25.63;46.10;100423.84;5002021;28;20560;-72
2022/08/03 07:15:53;;;;;;;6.20;3.38;;;;;;;25.91;44.66;100426.19;5009853;28;20556;-72
2022/08/03 07:18:22;;;;;;;7.97;3.72;;;;;;;26.30;44.84;100421.75;5002311;28;20620;-72
2022/08/03 07:20:56;;;;;;;4.50;3.40;;;;;;;26.58;44.30;100426.81;5012152;28;20516;-74
2022/08/03 07:23:24;;;;;;;6.13;3.70;;;;;;;26.86;42.50;100418.03;5013033;28;20133;-71
2022/08/03 07:25:50;;;;;;;8.15;3.60;;;;;;;27.30;43.15;100422.94;5006463;28;20057;-74
2022/08/03 07:28:18;;;;;;;6.65;3.67;;;;;;;27.66;41.19;100425.94;5003308;28;20042;-74
2022/08/03 07:30:45;;;;;;;5.30;3.17;;;;;;;27.94;39.82;100427.06;4999958;28;20069;-74
2022/08/03 07:33:12;;;;;;;5.68;2.95;;;;;;;28.31;38.64;100419.09;5009637;28;20088;-73
2022/08/03 07:35:39;;;;;;;3.85;2.65;;;;;;;28.33;38.38;100397.97;5024656;28;20037;-74
2022/08/03 07:38:06;;;;;;;6.75;2.88;;;;;;;28.47;38.71;100418.94;5026891;28;20049;-73
2022/08/03 07:40:32;;;;;;;2.85;2.40;;;;;;;28.48;38.43;100428.81;5027331;28;20054;-74
2022/08/03 07:42:59;;;;;;;4.85;2.83;;;;;;;28.58;37.29;100421.19;5023402;28;20136;-73
2022/08/03 07:45:26;;;;;;;6.18;3.08;;;;;;;28.49;37.60;100422.31;5023496;28;20099;-70
2022/08/03 07:47:53;;;;;;;3.17;2.60;;;;;;;28.24;37.60;100425.28;5020688;28;20045;-75
2022/08/03 07:50:20;;;;;;;4.93;2.60;;;;;;;28.60;37.28;100421.84;5023663;28;20414;-73
2022/08/03 07:52:49;;;;;;;3.35;2.40;;;;;;;29.02;35.40;100423.06;5016177;28;20058;-73
2022/08/03 07:55:17;;;;;;;4.50;2.45;;;;;;;29.29;35.35;100422.31;5025720;28;20037;-73
2022/08/03 07:57:44;;;;;;;4.20;2.72;;;;;;;29.42;34.61;100419.78;5028687;28;20073;-72
2022/08/03 08:00:18;;;;;;;5.18;2.50;;;;;;;29.37;34.91;100415.91;5030108;28;20077;-73
2022/08/03 08:02:45;;;;;;;3.20;2.70;;;;;;;29.57;34.12;100419.75;5023347;28;20053;-75
2022/08/03 08:05:12;;;;;;;3.17;2.42;;;;;;;29.46;34.64;100417.50;5020377;28;20115;-75
2022/08/03 08:07:39;;;;;;;3.40;2.40;;;;;;;29.66;33.34;100413.09;5027277;28;20045;-71
2022/08/03 08:10:08;;;;;;;6.88;2.55;;;;;;;29.00;34.85;100397.84;5030396;28;20045;-74
2022/08/03 08:12:37;;;;;;;6.00;2.42;;;;;;;29.07;35.07;100406.97;5024038;28;20053;-74
2022/08/03 08:15:04;;;;;;;3.55;2.42;;;;;;;29.64;35.27;100405.09;5031333;28;20088;-74
2022/08/03 08:17:40;;;;;;;3.40;2.53;;;;;;;30.15;33.42;100399.47;5026158;28;20372;-75
2022/08/03 08:20:08;;;;;;;7.63;2.83;;;;;;;30.68;33.05;100394.38;5026988;28;20049;-74
2022/08/03 08:22:35;;;;;;;5.72;2.20;;;;;;;31.01;32.66;100397.25;5025086;28;20081;-73
2022/08/03 08:25:04;;;;;;;4.72;2.95;;;;;;;31.16;31.75;100399.88;5031832;28;20041;-75
2022/08/03 08:27:31;;;;;;;2.60;2.30;;;;;;;31.58;31.29;100390.50;5020345;28;20061;-75
2022/08/03 08:30:20;;;;;;;5.43;2.70;;;;;;;32.07;30.34;100395.59;5023873;28;20069;-72
2022/08/03 08:32:48;;;;;;;4.90;2.30;;;;;;;32.06;29.95;100388.44;5018587;28;20053;-72
2022/08/03 08:35:15;;;;;;;6.82;2.20;;;;;;;31.91;29.70;100379.59;5028482;28;20061;-73
2022/08/03 08:37:42;;;;;;;5.75;2.30;;;;;;;31.33;30.90;100390.22;5022853;28;20045;-74
2022/08/03 08:40:20;;;;;;;6.35;2.20;;;;;;;31.12;32.04;100395.84;5028329;28;20143;-75
2022/08/03 08:42:47;;;;;;;7.22;2.33;;;;;;;31.08;30.75;100397.28;5028021;28;20151;-74
2022/08/03 08:45:24;;;;;;;5.13;2.53;;;;;;;31.18;30.76;100397.75;5016707;28;20050;-78
2022/08/03 08:47:50;;;;;;;4.57;2.17;;;;;;;31.33;31.17;100398.44;5016922;28;20057;-77
2022/08/03 08:50:22;;;;;;;2.70;2.35;;;;;;;31.56;30.89;100393.44;5023789;28;20057;-76
2022/08/03 08:52:55;;;;;;;3.50;2.20;;;;;;;31.58;30.64;100383.13;5022061;28;20659;-82
2022/08/03 08:55:22;;;;;;;2.80;2.22;;;;;;;31.40;29.86;100393.81;5025171;28;20108;-77
2022/08/03 08:58:00;;;;;;;3.35;2.33;;;;;;;30.43;31.14;100387.69;5024764;28;20107;-82
2022/08/03 09:00:27;;;;;;;3.63;2.40;;;;;;;29.90;31.95;100387.28;5022951;28;20528;-76
2022/08/03 09:02:54;;;;;;;3.08;2.40;;;;;;;29.61;32.92;100359.09;5023274;28;20134;-75
2022/08/03 09:05:20;;;;;;;5.03;2.50;;;;;;;30.23;31.79;100385.66;5023942;28;20045;-78
2022/08/03 09:08:07;;;;;;;3.92;2.17;;;;;;;31.19;30.15;100391.22;5020598;28;20102;-78
2022/08/03 09:10:34;;;;;;;4.97;2.05;;;;;;;31.96;28.87;100385.25;5025005;28;20409;-78
2022/08/03 09:13:01;;;;;;;6.97;2.13;;;;;;;31.77;28.32;100383.38;5017404;28;20077;-77
2022/08/03 09:15:32;;;;;;;4.25;2.22;;;;;;;31.05;28.97;100385.69;5024070;28;20049;-77
2022/08/03 09:18:01;;;;;;;4.28;2.60;;;;;;;30.57;30.37;100381.28;5019788;28;20049;-78
2022/08/03 09:20:31;;;;;;;4.03;2.47;;;;;;;30.43;30.59;100379.47;5023754;28;20045;-78
2022/08/03 09:23:03;;;;;;;2.80;1.80;;;;;;;30.20;30.95;100364.22;5003909;28;20072;-77
2022/08/03 09:25:57;;;;;;;6.60;2.33;;;;;;;30.22;30.10;100364.84;5036238;28;20045;-78
2022/08/03 09:28:33;;;;;;;2.30;2.10;;;;;;;30.29;30.47;100379.41;5021866;28;20469;-75
2022/08/03 09:31:19;;;;;;;3.28;2.03;;;;;;;30.13;30.69;100362.47;5027939;28;20069;-75
2022/08/03 09:33:47;;;;;;;5.45;2.50;;;;;;;30.22;30.96;100366.75;5021618;28;20097;-79
2022/08/03 09:36:46;;;;;;;4.38;2.33;;;;;;;30.27;31.02;100380.66;5021167;28;20065;-78
2022/08/03 09:39:18;;;;;;;2.40;2.00;;;;;;;30.29;30.21;100376.69;5026144;28;20091;-74
2022/08/03 09:42:13;;;;;;;8.88;2.35;;;;;;;30.37;30.30;100380.31;5031846;28;20456;-77
2022/08/03 09:44:43;;;;;;;3.70;2.00;;;;;;;30.33;30.41;100358.00;5029722;28;20049;-75
2022/08/03 09:47:11;;;;;;;4.40;2.33;;;;;;;30.46;30.19;100359.97;5030239;28;20045;-78
2022/08/03 09:49:41;;;;;;;4.15;2.40;;;;;;;30.58;30.30;100364.69;5021670;28;20064;-76
2022/08/03 09:52:12;;;;;;;;;;;;;;;30.58;30.00;100369.28;5022527;28;20049;-75
2022/08/03 09:55:01;;;;;;;6.88;2.22;;;;;;;30.53;30.06;100366.31;5008797;28;19955;-74
2022/08/03 09:57:31;;;;;;;4.35;2.13;;;;;;;30.35;29.96;100361.38;5019831;28;20045;-76
2022/08/03 10:00:10;;;;;;;2.65;1.95;;;;;;;30.44;30.58;100362.03;5020950;28;20049;-76
2022/08/03 10:02:38;;;;;;;3.30;2.10;;;;;;;30.51;29.80;100357.47;5017427;28;20046;-72
2022/08/03 10:05:07;;;;;;;4.55;2.60;;;;;;;30.66;30.36;100366.41;5018209;28;20049;-73
2022/08/03 10:07:49;;;;;;;3.42;2.33;;;;;;;30.82;29.83;100362.47;5013347;28;20089;-72
2022/08/03 10:10:16;;;;;;;5.32;2.20;;;;;;;30.51;29.51;100354.75;5025038;28;20480;-73
2022/08/03 10:12:58;;;;;;;2.72;2.05;;;;;;;30.32;29.87;100335.31;5021939;28;20037;-73
2022/08/03 10:15:26;;;;;;;6.47;2.10;;;;;;;30.42;30.20;100345.84;5020118;28;20045;-74
2022/08/03 10:18:12;;;;;;;2.38;1.88;;;;;;;30.45;30.03;100341.88;5016379;28;20409;-74
2022/08/03 10:20:45;;;;;;;6.38;2.20;;;;;;;30.50;29.60;100347.59;5014696;28;20132;-74
2022/08/03 10:23:13;;;;;;;5.85;2.30;;;;;;;30.58;29.77;100340.06;5001515;28;21046;-74
2022/08/03 10:25:42;;;;;;;6.97;2.60;;;;;;;30.72;30.40;100338.25;5023364;28;20065;-72
2022/08/03 10:28:13;;;;;;;4.55;2.17;;;;;;;30.76;30.37;100336.78;5019923;28;20121;-73
2022/08/03 10:30:44;;;;;;;3.22;2.40;;;;;;;30.72;29.86;100321.84;5007303;28;20076;-76
2022/08/03 10:33:18;;;;;;;2.78;2.10;;;;;;;30.79;29.50;100330.94;5009974;28;20053;-72
2022/08/03 10:36:06;;;;;;;3.03;1.92;;;;;;;30.81;29.46;100330.72;4997682;28;20555;-72
2022/08/03 10:38:39;;;;;;;2.97;2.33;;;;;;;30.71;29.60;100309.22;5000376;28;20053;-74
2022/08/03 10:41:07;;;;;;;3.10;2.00;;;;;;;30.77;29.39;100322.06;4978915;28;20051;-73
2022/08/03 10:43:51;;;;;;;2.88;1.98;;;;;;;30.88;30.12;100324.22;4987927;28;20057;-73
2022/08/03 10:46:19;;;;;;;5.53;2.28;;;;;;;30.87;29.09;100303.38;4993728;28;20120;-74
2022/08/03 10:48:48;;;;;;;3.55;2.17;;;;;;;30.93;28.98;100308.03;4998753;28;20568;-72
2022/08/03 10:51:16;;;;;;;3.07;1.97;;;;;;;30.92;29.35;100298.16;4994408;28;20093;-76
2022/08/03 10:53:43;;;;;;;4.30;2.00;;;;;;;31.05;29.43;100303.66;4999022;28;20525;-76
2022/08/03 10:59:39;;;;;;;2.88;2.50;;;;;;;31.17;29.50;100300.34;4997179;28;20050;-72
2022/08/03 11:02:08;;;;;;;5.18;2.30;;;;;;;31.28;28.65;100291.53;4990642;28;20569;-72
2022/08/03 11:04:35;;;;;;;2.83;1.83;;;;;;;31.43;28.83;100270.25;4997420;28;20053;-73
2022/08/03 11:07:20;;;;;;;3.85;1.95;;;;;;;31.80;27.97;100287.13;5000846;28;20099;-73
2022/08/03 11:09:52;;;;;;;3.78;1.85;;;;;;;32.02;28.07;100289.38;5004873;28;20498;-73
2022/08/03 11:12:22;;;;;;;3.42;2.15;;;;;;;32.17;27.36;100283.66;4999931;28;20565;-74
2022/08/03 11:15:04;;;;;;;2.80;1.98;;;;;;;32.23;27.32;100291.06;4998178;28;20050;-71
2022/08/03 11:17:32;;;;;;;2.60;2.40;;;;;;;32.29;27.39;100292.91;4997705;28;20494;-73
2022/08/03 11:20:12;;;;;;;3.47;2.00;;;;;;;32.31;27.27;100281.75;4996892;28;20068;-73
2022/08/03 11:22:53;;;;;;;2.55;2.35;;;;;;;32.21;27.23;100264.94;4995972;28;20064;-72
2022/08/03 11:25:20;;;;;;;2.90;2.20;;;;;;;32.28;28.01;100265.72;4991540;28;20049;-72
2022/08/03 11:28:27;;;;;;;5.88;4.07;;;;;;;32.51;26.77;100278.94;5004451;28;20128;-74
2022/08/03 11:30:56;;;;;;;2.70;1.90;;;;;;;32.61;27.02;100276.56;4997379;28;20814;-75
2022/08/03 11:33:29;;;;;;;4.10;2.00;;;;;;;32.57;26.91;100272.59;5007362;28;20053;-73
2022/08/03 11:36:00;;;;;;;4.28;2.10;;;;;;;32.53;26.43;100272.19;5024425;28;20111;-72
2022/08/03 11:38:27;;;;;;;2.63;1.83;;;;;;;32.62;26.87;100273.59;5021417;28;20104;-73
2022/08/03 11:40:54;;;;;;;5.05;2.15;;;;;;;32.62;26.68;100267.28;5012569;28;20057;-75
2022/08/03 11:43:20;;;;;;;1.98;1.88;;;;;;;32.69;27.33;100270.84;5022618;28;20506;-72
2022/08/03 11:46:11;;;;;;;3.13;1.90;;;;;;;32.66;26.65;100261.16;5001952;28;20073;-73
2022/08/03 11:48:42;;;;;;;2.55;1.90;;;;;;;32.71;26.87;100260.50;5015546;28;20996;-74
2022/08/03 11:51:21;;;;;;;3.50;2.10;;;;;;;32.72;26.21;100268.53;5008269;28;20084;-74
2022/08/03 11:53:53;;;;;;;5.15;2.00;;;;;;;32.67;26.84;100262.00;5016187;28;20073;-74
2022/08/03 11:56:19;;;;;;;2.50;1.90;;;;;;;32.70;26.71;100269.78;5023249;28;20493;-72